Time,TemperatureF,DewpointF,PressureIn,WindDirection,WindDirectionDegrees,WindSpeedMPH,WindSpeedGustMPH,Humidity,HourlyPrecipIn,Conditions,Clouds,dailyrainin,SoftwareType,DateUTC
2013-06-23 00:01:00,71.0,66.0,-100.00,NE,40,0.0,0.0,85,-99.99,,,-99.99,,2013-06-23 05:01:00,
2013-06-23 00:11:00,72.0,66.0,-100.00,NE,45,0.0,0.0,82,-99.99,,,-99.99,,2013-06-23 05:11:00,
2013-06-23 00:22:00,72.0,66.0,-100.00,NE,45,0.0,0.0,82,-99.99,,,-99.99,,2013-06-23 05:22:00,
2013-06-23 00:41:00,76.0,64.0,-100.00,NNE,25,0.0,0.0,66,-99.99,,,-99.99,,2013-06-23 05:41:00,
2013-06-23 00:52:00,76.0,64.0,-100.00,NNE,25,0.0,0.0,66,-99.99,,,-99.99,,2013-06-23 05:52:00,
2013-06-23 01:12:00,74.0,66.0,-100.00,ESE,110,0.0,0.0,76,-99.99,,,-99.99,,2013-06-23 06:12:00,
2013-06-23 01:22:00,74.0,66.0,-100.00,ESE,110,0.0,0.0,76,-99.99,,,-99.99,,2013-06-23 06:22:00,
2013-06-23 01:43:00,71.0,66.0,-100.00,SE,125,0.0,0.0,84,-99.99,,,-99.99,,2013-06-23 06:43:00,
2013-06-23 01:52:00,71.0,66.0,-100.00,SE,125,0.0,0.0,84,-99.99,,,-99.99,,2013-06-23 06:52:00,
2013-06-23 02:12:00,70.0,66.0,-100.00,ESE,115,0.0,0.0,85,-99.99,,,-99.99,,2013-06-23 07:12:00,
2013-06-23 02:22:00,70.0,66.0,-100.00,ESE,115,0.0,0.0,85,-99.99,,,-99.99,,2013-06-23 07:22:00,
2013-06-23 02:53:00,70.0,67.0,-100.00,SE,125,0.0,0.0,90,-99.99,,,-99.99,,2013-06-23 07:53:00,
2013-06-23 03:12:00,69.0,67.0,-100.00,SE,130,0.0,0.0,92,-99.99,,,-99.99,,2013-06-23 08:12:00,
2013-06-23 03:22:00,69.0,67.0,-100.00,SE,130,0.0,0.0,92,-99.99,,,-99.99,,2013-06-23 08:22:00,
2013-06-23 03:43:00,70.0,67.0,-100.00,ESE,115,0.0,0.0,92,-99.99,,,-99.99,,2013-06-23 08:43:00,
2013-06-23 03:53:00,70.0,67.0,-100.00,ESE,115,0.0,0.0,92,-99.99,,,-99.99,,2013-06-23 08:53:00,
2013-06-23 04:12:00,70.0,67.0,-100.00,SE,125,0.0,0.0,90,-99.99,,,-99.99,,2013-06-23 09:12:00,
2013-06-23 04:22:00,70.0,67.0,-100.00,SE,125,0.0,0.0,90,-99.99,,,-99.99,,2013-06-23 09:22:00,
2013-06-23 04:54:00,70.0,66.0,-100.00,SSE,150,0.0,0.0,88,-99.99,,,-99.99,,2013-06-23 09:54:00,
2013-06-23 05:11:00,71.0,66.0,-100.00,SSE,160,0.0,0.0,86,-99.99,,,-99.99,,2013-06-23 10:11:00,
2013-06-23 05:22:00,71.0,66.0,-100.00,SSE,160,0.0,0.0,86,-99.99,,,-99.99,,2013-06-23 10:22:00,
2013-06-23 05:43:00,71.0,67.0,-100.00,SSE,165,0.0,0.0,87,-99.99,,,-99.99,,2013-06-23 10:43:00,
2013-06-23 05:53:00,71.0,67.0,-100.00,SSE,165,0.0,0.0,87,-99.99,,,-99.99,,2013-06-23 10:53:00,
2013-06-23 06:11:00,71.0,67.0,-100.00,SSE,165,0.0,0.0,87,-99.99,,,-99.99,,2013-06-23 11:11:00,
2013-06-23 06:22:00,71.0,67.0,-100.00,SSE,165,0.0,0.0,87,-99.99,,,-99.99,,2013-06-23 11:22:00,
2013-06-23 06:33:00,71.0,65.0,-100.00,North,5,0.0,0.0,81,-99.99,,,-99.99,,2013-06-23 11:33:00,
2013-06-23 06:43:00,71.0,66.0,-100.00,North,10,0.0,0.0,85,-99.99,,,-99.99,,2013-06-23 11:43:00,
2013-06-23 06:53:00,71.0,66.0,-100.00,North,10,0.0,0.0,85,-99.99,,,-99.99,,2013-06-23 11:53:00,
2013-06-23 07:12:00,72.0,67.0,-100.00,North,5,0.0,0.0,84,-99.99,,,-99.99,,2013-06-23 12:12:00,
2013-06-23 07:22:00,72.0,67.0,-100.00,North,5,0.0,0.0,84,-99.99,,,-99.99,,2013-06-23 12:22:00,
2013-06-23 07:42:00,73.0,66.0,-100.00,North,5,0.0,0.0,80,-99.99,,,-99.99,,2013-06-23 12:42:00,
2013-06-23 07:53:00,73.0,66.0,-100.00,North,5,0.0,0.0,80,-99.99,,,-99.99,,2013-06-23 12:53:00,
2013-06-23 08:11:00,74.0,67.0,-100.00,North,10,0.0,0.0,80,-99.99,,,-99.99,,2013-06-23 13:11:00,
2013-06-23 08:23:00,74.0,67.0,-100.00,North,10,0.0,0.0,80,-99.99,,,-99.99,,2013-06-23 13:23:00,
2013-06-23 08:43:00,74.0,69.0,-100.00,NNE,20,0.0,0.0,82,-99.99,,,-99.99,,2013-06-23 13:43:00,
2013-06-23 08:54:00,74.0,69.0,-100.00,NNE,20,0.0,0.0,82,-99.99,,,-99.99,,2013-06-23 13:54:00,
2013-06-23 09:22:00,77.0,69.0,-100.00,NNE,25,0.0,0.0,76,-99.99,,,-99.99,,2013-06-23 14:22:00,
2013-06-23 09:44:00,78.0,69.0,-100.00,NNE,25,0.0,0.0,72,-99.99,,,-99.99,,2013-06-23 14:44:00,
2013-06-23 09:52:00,78.0,69.0,-100.00,NNE,25,0.0,0.0,72,-99.99,,,-99.99,,2013-06-23 14:52:00,
2013-06-23 10:11:00,79.0,69.0,-100.00,NNE,25,0.0,0.0,71,-99.99,,,-99.99,,2013-06-23 15:11:00,
2013-06-23 10:23:00,79.0,69.0,-100.00,NNE,25,0.0,0.0,71,-99.99,,,-99.99,,2013-06-23 15:23:00,
2013-06-23 10:35:00,79.0,69.0,-100.00,NNE,25,0.0,0.0,71,-99.99,,,-99.99,,2013-06-23 15:35:00,
2013-06-23 10:43:00,79.0,69.0,-100.00,NNE,25,0.0,0.0,71,-99.99,,,-99.99,,2013-06-23 15:43:00,
2013-06-23 12:34:00,84.0,72.0,-100.00,NNE,20,0.0,0.0,67,-99.99,,,-99.99,,2013-06-23 17:34:00,
2013-06-23 12:43:00,85.0,71.0,-100.00,NNE,25,0.0,0.0,64,-99.99,,,-99.99,,2013-06-23 17:43:00,
2013-06-23 12:53:00,85.0,71.0,-100.00,NNE,25,0.0,0.0,64,-99.99,,,-99.99,,2013-06-23 17:53:00,
2013-06-23 13:22:00,86.0,73.0,-100.00,NNE,25,0.0,0.0,65,-99.99,,,-99.99,,2013-06-23 18:22:00,
2013-06-23 13:42:00,87.0,72.0,-100.00,NE,45,0.0,0.0,61,-99.99,,,-99.99,,2013-06-23 18:42:00,
2013-06-23 13:53:00,87.0,72.0,-100.00,NE,45,0.0,0.0,61,-99.99,,,-99.99,,2013-06-23 18:53:00,
2013-06-23 14:11:00,86.0,71.0,-100.00,NNE,30,0.0,0.0,61,-99.99,,,-99.99,,2013-06-23 19:11:00,
2013-06-23 14:21:00,86.0,71.0,-100.00,NNE,30,0.0,0.0,61,-99.99,,,-99.99,,2013-06-23 19:21:00,
2013-06-23 14:43:00,87.0,72.0,-100.00,NNE,30,0.0,0.0,60,-99.99,,,-99.99,,2013-06-23 19:43:00,
2013-06-23 14:53:00,87.0,72.0,-100.00,NNE,30,0.0,0.0,60,-99.99,,,-99.99,,2013-06-23 19:53:00,
2013-06-23 15:12:00,88.0,72.0,-100.00,NNE,20,0.0,0.0,59,-99.99,,,-99.99,,2013-06-23 20:12:00,
2013-06-23 15:24:00,88.0,72.0,-100.00,NNE,20,0.0,0.0,59,-99.99,,,-99.99,,2013-06-23 20:24:00,
2013-06-23 15:42:00,87.0,71.0,-100.00,NNE,30,0.0,0.0,59,-99.99,,,-99.99,,2013-06-23 20:42:00,
2013-06-23 15:53:00,87.0,71.0,-100.00,NNE,30,0.0,0.0,59,-99.99,,,-99.99,,2013-06-23 20:53:00,
2013-06-23 16:11:00,85.0,71.0,-100.00,SSE,150,0.0,0.0,62,-99.99,,,-99.99,,2013-06-23 21:11:00,
2013-06-23 16:22:00,85.0,71.0,-100.00,SSE,150,0.0,0.0,62,-99.99,,,-99.99,,2013-06-23 21:22:00,
2013-06-23 16:52:00,85.0,70.0,-100.00,SSE,165,0.0,0.0,61,-99.99,,,-99.99,,2013-06-23 21:52:00,
2013-06-23 17:11:00,84.0,71.0,-100.00,SSE,165,0.0,0.0,65,-99.99,,,-99.99,,2013-06-23 22:11:00,
2013-06-23 17:22:00,84.0,71.0,-100.00,SSE,165,0.0,0.0,65,-99.99,,,-99.99,,2013-06-23 22:22:00,
2013-06-23 17:32:00,84.0,71.0,-100.00,North,5,0.0,0.0,64,-99.99,,,-99.99,,2013-06-23 22:32:00,
2013-06-23 17:43:00,84.0,70.0,-100.00,SSE,165,0.0,0.0,63,-99.99,,,-99.99,,2013-06-23 22:43:00,
2013-06-23 17:53:00,84.0,70.0,-100.00,SSE,165,0.0,0.0,63,-99.99,,,-99.99,,2013-06-23 22:53:00,
2013-06-23 18:22:00,84.0,71.0,-100.00,SSE,160,0.0,0.0,65,-99.99,,,-99.99,,2013-06-23 23:22:00,
2013-06-23 18:44:00,84.0,71.0,-100.00,North,0,0.0,0.0,64,-99.99,,,-99.99,,2013-06-23 23:44:00,
2013-06-23 18:52:00,84.0,71.0,-100.00,North,0,0.0,0.0,64,-99.99,,,-99.99,,2013-06-23 23:52:00,
2013-06-23 19:11:00,84.0,71.0,-100.00,SE,145,0.0,0.0,65,-99.99,,,-99.99,,2013-06-24 00:11:00,
2013-06-23 19:22:00,84.0,71.0,-100.00,SE,145,0.0,0.0,65,-99.99,,,-99.99,,2013-06-24 00:22:00,
2013-06-23 19:52:00,83.0,71.0,-100.00,SE,145,0.0,0.0,68,-99.99,,,-99.99,,2013-06-24 00:52:00,
2013-06-23 20:11:00,83.0,73.0,-100.00,North,10,0.0,0.0,73,-99.99,,,-99.99,,2013-06-24 01:11:00,
2013-06-23 20:22:00,83.0,73.0,-100.00,North,10,0.0,0.0,73,-99.99,,,-99.99,,2013-06-24 01:22:00,
2013-06-23 20:32:00,82.0,73.0,-100.00,NE,45,0.0,0.0,75,-99.99,,,-99.99,,2013-06-24 01:32:00,
2013-06-23 20:42:00,80.0,73.0,-100.00,North,10,0.0,0.0,80,-99.99,,,-99.99,,2013-06-24 01:42:00,
2013-06-23 20:53:00,80.0,73.0,-100.00,North,10,0.0,0.0,80,-99.99,,,-99.99,,2013-06-24 01:53:00,
2013-06-23 21:11:00,79.0,73.0,-100.00,SSE,150,0.0,0.0,81,-99.99,,,-99.99,,2013-06-24 02:11:00,
2013-06-23 21:22:00,79.0,73.0,-100.00,SSE,150,0.0,0.0,81,-99.99,,,-99.99,,2013-06-24 02:22:00,
2013-06-23 21:33:00,81.0,73.0,-100.00,SE,145,0.0,0.0,77,-99.99,,,-99.99,,2013-06-24 02:33:00,
2013-06-23 21:42:00,78.0,69.0,-100.00,ESE,105,0.0,0.0,73,-99.99,,,-99.99,,2013-06-24 02:42:00,
2013-06-23 21:53:00,78.0,69.0,-100.00,ESE,105,0.0,0.0,73,-99.99,,,-99.99,,2013-06-24 02:53:00,
2013-06-23 22:22:00,74.0,65.0,-100.00,East,95,0.0,0.0,73,-99.99,,,-99.99,,2013-06-24 03:22:00,
2013-06-23 22:33:00,73.0,67.0,-100.00,ESE,115,0.0,0.0,81,-99.99,,,-99.99,,2013-06-24 03:33:00,
2013-06-23 22:53:00,72.0,67.0,-100.00,ESE,110,0.0,0.0,84,-99.99,,,-99.99,,2013-06-24 03:53:00,
2013-06-23 23:12:00,71.0,67.0,-100.00,SSE,165,0.0,0.0,87,-99.99,,,-99.99,,2013-06-24 04:12:00,
2013-06-23 23:22:00,71.0,67.0,-100.00,SSE,165,0.0,0.0,87,-99.99,,,-99.99,,2013-06-24 04:22:00,
2013-06-23 23:43:00,72.0,68.0,-100.00,NNE,15,0.0,0.0,87,-99.99,,,-99.99,,2013-06-24 04:43:00,
2013-06-23 23:53:00,72.0,68.0,-100.00,NNE,15,0.0,0.0,87,-99.99,,,-99.99,,2013-06-24 04:53:00,